sensor_id;sensor_type;location;lat;lon;timestamp;P1;durP1;ratioP1;P2;durP2;ratioP2
20379;SDS011;10349;48.666;8.948;2023-03-20T00:00:38;5.43;;;4.97;;
20379;SDS011;10349;48.666;8.948;2023-03-20T00:03:08;3.80;;;3.50;;
20379;SDS011;10349;48.666;8.948;2023-03-20T00:05:36;4.37;;;4.07;;
20379;SDS011;10349;48.666;8.948;2023-03-20T00:08:01;4.03;;;3.63;;
20379;SDS011;10349;48.666;8.948;2023-03-20T00:10:48;3.43;;;3.23;;
20379;SDS011;10349;48.666;8.948;2023-03-20T00:13:14;4.30;;;3.27;;
20379;SDS011;10349;48.666;8.948;2023-03-20T00:15:50;4.10;;;3.80;;
20379;SDS011;10349;48.666;8.948;2023-03-20T00:18:19;11.53;;;4.00;;
20379;SDS011;10349;48.666;8.948;2023-03-20T00:20:50;3.20;;;3.00;;
20379;SDS011;10349;48.666;8.948;2023-03-20T00:23:17;4.17;;;3.10;;
20379;SDS011;10349;48.666;8.948;2023-03-20T00:25:44;3.03;;;2.83;;
20379;SDS011;10349;48.666;8.948;2023-03-20T00:28:56;3.20;;;3.00;;
20379;SDS011;10349;48.666;8.948;2023-03-20T00:31:19;3.17;;;2.97;;
20379;SDS011;10349;48.666;8.948;2023-03-20T00:33:58;3.23;;;2.97;;
20379;SDS011;10349;48.666;8.948;2023-03-20T00:36:26;3.60;;;3.30;;
20379;SDS011;10349;48.666;8.948;2023-03-20T00:38:52;3.73;;;2.53;;
20379;SDS011;10349;48.666;8.948;2023-03-20T00:43:47;4.50;;;3.40;;
20379;SDS011;10349;48.666;8.948;2023-03-20T00:46:16;3.20;;;3.00;;
20379;SDS011;10349;48.666;8.948;2023-03-20T00:48:42;3.40;;;2.53;;
20379;SDS011;10349;48.666;8.948;2023-03-20T00:51:09;4.60;;;2.50;;
20379;SDS011;10349;48.666;8.948;2023-03-20T00:53:34;2.97;;;2.67;;
20379;SDS011;10349;48.666;8.948;2023-03-20T00:56:00;3.17;;;2.97;;
20379;SDS011;10349;48.666;8.948;2023-03-20T00:58:26;4.33;;;3.20;;
20379;SDS011;10349;48.666;8.948;2023-03-20T01:00:52;3.77;;;3.47;;
20379;SDS011;10349;48.666;8.948;2023-03-20T01:03:19;8.00;;;3.20;;
20379;SDS011;10349;48.666;8.948;2023-03-20T01:05:47;3.60;;;3.30;;
20379;SDS011;10349;48.666;8.948;2023-03-20T01:08:18;2.30;;;2.10;;
20379;SDS011;10349;48.666;8.948;2023-03-20T01:10:48;3.20;;;3.00;;
20379;SDS011;10349;48.666;8.948;2023-03-20T01:13:24;4.17;;;3.77;;
20379;SDS011;10349;48.666;8.948;2023-03-20T01:15:51;2.27;;;2.17;;
20379;SDS011;10349;48.666;8.948;2023-03-20T01:18:19;2.47;;;2.37;;
20379;SDS011;10349;48.666;8.948;2023-03-20T01:20:45;3.23;;;3.03;;
20379;SDS011;10349;48.666;8.948;2023-03-20T01:23:12;3.00;;;2.80;;
20379;SDS011;10349;48.666;8.948;2023-03-20T01:25:39;3.07;;;2.87;;
20379;SDS011;10349;48.666;8.948;2023-03-20T01:28:13;3.70;;;2.17;;
20379;SDS011;10349;48.666;8.948;2023-03-20T01:30:45;2.80;;;2.60;;
20379;SDS011;10349;48.666;8.948;2023-03-20T01:33:15;4.47;;;2.13;;
20379;SDS011;10349;48.666;8.948;2023-03-20T01:35:45;1.83;;;1.73;;
20379;SDS011;10349;48.666;8.948;2023-03-20T01:38:33;2.20;;;2.00;;
20379;SDS011;10349;48.666;8.948;2023-03-20T01:41:03;1.97;;;1.70;;
20379;SDS011;10349;48.666;8.948;2023-03-20T01:43:38;2.13;;;1.30;;
20379;SDS011;10349;48.666;8.948;2023-03-20T01:51:50;1.40;;;1.30;;
20379;SDS011;10349;48.666;8.948;2023-03-20T01:54:19;1.00;;;0.80;;
20379;SDS011;10349;48.666;8.948;2023-03-20T01:56:58;1.47;;;1.30;;
20379;SDS011;10349;48.666;8.948;2023-03-20T01:59:35;1.10;;;1.00;;
20379;SDS011;10349;48.666;8.948;2023-03-20T02:02:07;1.40;;;1.30;;
20379;SDS011;10349;48.666;8.948;2023-03-20T02:04:37;1.40;;;1.03;;
20379;SDS011;10349;48.666;8.948;2023-03-20T02:07:10;1.53;;;1.43;;
20379;SDS011;10349;48.666;8.948;2023-03-20T02:09:45;1.17;;;1.07;;
20379;SDS011;10349;48.666;8.948;2023-03-20T02:12:17;1.30;;;1.20;;
20379;SDS011;10349;48.666;8.948;2023-03-20T02:14:44;1.33;;;1.17;;
20379;SDS011;10349;48.666;8.948;2023-03-20T02:17:20;1.33;;;1.13;;
20379;SDS011;10349;48.666;8.948;2023-03-20T02:20:01;1.30;;;1.20;;
20379;SDS011;10349;48.666;8.948;2023-03-20T02:26:39;1.40;;;1.30;;
20379;SDS011;10349;48.666;8.948;2023-03-20T02:45:27;1.13;;;1.00;;
20379;SDS011;10349;48.666;8.948;2023-03-20T02:54:00;1.40;;;1.30;;
20379;SDS011;10349;48.666;8.948;2023-03-20T03:02:11;2.60;;;1.20;;
20379;SDS011;10349;48.666;8.948;2023-03-20T03:04:41;1.20;;;1.00;;
20379;SDS011;10349;48.666;8.948;2023-03-20T03:07:14;1.50;;;1.27;;
20379;SDS011;10349;48.666;8.948;2023-03-20T03:09:54;1.17;;;1.07;;
20379;SDS011;10349;48.666;8.948;2023-03-20T03:12:25;1.40;;;1.20;;
20379;SDS011;10349;48.666;8.948;2023-03-20T03:15:00;1.20;;;1.10;;
20379;SDS011;10349;48.666;8.948;2023-03-20T03:17:34;2.03;;;1.20;;
20379;SDS011;10349;48.666;8.948;2023-03-20T03:20:04;1.47;;;1.37;;
20379;SDS011;10349;48.666;8.948;2023-03-20T03:22:37;1.33;;;1.10;;
20379;SDS011;10349;48.666;8.948;2023-03-20T03:25:03;1.40;;;1.20;;
20379;SDS011;10349;48.666;8.948;2023-03-20T03:27:35;1.33;;;1.23;;
20379;SDS011;10349;48.666;8.948;2023-03-20T03:30:07;1.20;;;1.03;;
20379;SDS011;10349;48.666;8.948;2023-03-20T03:35:27;1.10;;;1.00;;
20379;SDS011;10349;48.666;8.948;2023-03-20T03:37:56;1.43;;;1.33;;
20379;SDS011;10349;48.666;8.948;2023-03-20T03:40:45;1.40;;;1.30;;
20379;SDS011;10349;48.666;8.948;2023-03-20T03:43:31;1.10;;;0.90;;
20379;SDS011;10349;48.666;8.948;2023-03-20T03:46:01;1.60;;;1.50;;
20379;SDS011;10349;48.666;8.948;2023-03-20T03:48:44;1.70;;;1.60;;
20379;SDS011;10349;48.666;8.948;2023-03-20T03:51:15;1.10;;;1.00;;
20379;SDS011;10349;48.666;8.948;2023-03-20T03:53:57;3.83;;;1.20;;
20379;SDS011;10349;48.666;8.948;2023-03-20T03:56:32;1.40;;;1.30;;
20379;SDS011;10349;48.666;8.948;2023-03-20T03:59:01;1.33;;;1.23;;
20379;SDS011;10349;48.666;8.948;2023-03-20T04:01:32;1.30;;;1.20;;
20379;SDS011;10349;48.666;8.948;2023-03-20T04:04:00;1.43;;;1.33;;
20379;SDS011;10349;48.666;8.948;2023-03-20T04:06:31;1.30;;;1.20;;
20379;SDS011;10349;48.666;8.948;2023-03-20T04:08:57;1.10;;;1.00;;
20379;SDS011;10349;48.666;8.948;2023-03-20T04:11:23;1.70;;;1.20;;
20379;SDS011;10349;48.666;8.948;2023-03-20T04:13:52;1.50;;;1.40;;
20379;SDS011;10349;48.666;8.948;2023-03-20T04:16:19;1.40;;;1.20;;
20379;SDS011;10349;48.666;8.948;2023-03-20T04:18:46;1.47;;;1.17;;
20379;SDS011;10349;48.666;8.948;2023-03-20T04:21:13;1.60;;;1.30;;
20379;SDS011;10349;48.666;8.948;2023-03-20T04:23:41;1.10;;;1.00;;
20379;SDS011;10349;48.666;8.948;2023-03-20T04:26:07;2.37;;;1.50;;
20379;SDS011;10349;48.666;8.948;2023-03-20T04:28:37;1.50;;;1.40;;
20379;SDS011;10349;48.666;8.948;2023-03-20T04:31:36;1.67;;;1.57;;
20379;SDS011;10349;48.666;8.948;2023-03-20T04:34:21;1.43;;;1.33;;
20379;SDS011;10349;48.666;8.948;2023-03-20T04:36:58;2.27;;;1.40;;
20379;SDS011;10349;48.666;8.948;2023-03-20T04:39:35;2.87;;;1.23;;
20379;SDS011;10349;48.666;8.948;2023-03-20T04:42:02;1.47;;;1.37;;
20379;SDS011;10349;48.666;8.948;2023-03-20T04:44:29;1.93;;;1.63;;
20379;SDS011;10349;48.666;8.948;2023-03-20T04:46:55;1.47;;;1.37;;
20379;SDS011;10349;48.666;8.948;2023-03-20T04:49:21;1.40;;;1.30;;
20379;SDS011;10349;48.666;8.948;2023-03-20T04:51:46;2.30;;;2.00;;
20379;SDS011;10349;48.666;8.948;2023-03-20T04:54:14;1.57;;;1.47;;
20379;SDS011;10349;48.666;8.948;2023-03-20T04:56:41;2.23;;;2.03;;
20379;SDS011;10349;48.666;8.948;2023-03-20T04:59:15;1.43;;;1.33;;
20379;SDS011;10349;48.666;8.948;2023-03-20T05:01:41;2.73;;;1.77;;
20379;SDS011;10349;48.666;8.948;2023-03-20T05:04:07;1.40;;;1.30;;
20379;SDS011;10349;48.666;8.948;2023-03-20T05:06:33;1.80;;;1.70;;
20379;SDS011;10349;48.666;8.948;2023-03-20T05:08:59;1.60;;;1.50;;
20379;SDS011;10349;48.666;8.948;2023-03-20T05:11:26;1.50;;;1.40;;
20379;SDS011;10349;48.666;8.948;2023-03-20T05:14:12;1.60;;;1.50;;
20379;SDS011;10349;48.666;8.948;2023-03-20T05:17:04;2.53;;;2.43;;
20379;SDS011;10349;48.666;8.948;2023-03-20T05:19:50;1.57;;;1.47;;
20379;SDS011;10349;48.666;8.948;2023-03-20T05:22:32;2.47;;;1.70;;
20379;SDS011;10349;48.666;8.948;2023-03-20T05:25:08;1.77;;;1.67;;
20379;SDS011;10349;48.666;8.948;2023-03-20T05:27:33;1.53;;;1.43;;
20379;SDS011;10349;48.666;8.948;2023-03-20T05:30:20;2.57;;;1.10;;
20379;SDS011;10349;48.666;8.948;2023-03-20T05:33:20;2.70;;;1.40;;
20379;SDS011;10349;48.666;8.948;2023-03-20T05:36:12;2.33;;;2.03;;
20379;SDS011;10349;48.666;8.948;2023-03-20T05:38:54;1.67;;;1.57;;
20379;SDS011;10349;48.666;8.948;2023-03-20T05:41:38;1.90;;;1.43;;
20379;SDS011;10349;48.666;8.948;2023-03-20T05:44:26;2.20;;;1.50;;
20379;SDS011;10349;48.666;8.948;2023-03-20T05:47:09;1.50;;;1.40;;
20379;SDS011;10349;48.666;8.948;2023-03-20T05:49:49;1.93;;;1.83;;
20379;SDS011;10349;48.666;8.948;2023-03-20T05:52:39;1.63;;;1.53;;
20379;SDS011;10349;48.666;8.948;2023-03-20T05:55:17;1.70;;;1.60;;
20379;SDS011;10349;48.666;8.948;2023-03-20T05:58:01;2.70;;;1.33;;
20379;SDS011;10349;48.666;8.948;2023-03-20T06:00:47;2.40;;;2.20;;
20379;SDS011;10349;48.666;8.948;2023-03-20T06:03:51;1.90;;;1.77;;
20379;SDS011;10349;48.666;8.948;2023-03-20T06:06:34;4.63;;;2.80;;
20379;SDS011;10349;48.666;8.948;2023-03-20T06:09:02;1.67;;;1.57;;
20379;SDS011;10349;48.666;8.948;2023-03-20T06:11:29;1.60;;;1.47;;
20379;SDS011;10349;48.666;8.948;2023-03-20T06:13:56;1.60;;;1.50;;
20379;SDS011;10349;48.666;8.948;2023-03-20T06:16:30;2.43;;;2.23;;
20379;SDS011;10349;48.666;8.948;2023-03-20T06:18:56;2.77;;;2.10;;
20379;SDS011;10349;48.666;8.948;2023-03-20T06:21:22;1.60;;;1.50;;
20379;SDS011;10349;48.666;8.948;2023-03-20T06:23:49;2.23;;;1.93;;
20379;SDS011;10349;48.666;8.948;2023-03-20T06:26:15;1.90;;;1.80;;
20379;SDS011;10349;48.666;8.948;2023-03-20T06:28:52;1.40;;;1.30;;
20379;SDS011;10349;48.666;8.948;2023-03-20T06:31:18;1.67;;;1.57;;
20379;SDS011;10349;48.666;8.948;2023-03-20T06:33:44;2.37;;;1.90;;
20379;SDS011;10349;48.666;8.948;2023-03-20T06:36:11;2.10;;;2.00;;
20379;SDS011;10349;48.666;8.948;2023-03-20T06:38:37;2.57;;;2.07;;
20379;SDS011;10349;48.666;8.948;2023-03-20T06:41:08;2.27;;;2.17;;
20379;SDS011;10349;48.666;8.948;2023-03-20T06:43:34;1.67;;;1.47;;
20379;SDS011;10349;48.666;8.948;2023-03-20T06:46:01;3.10;;;2.50;;
20379;SDS011;10349;48.666;8.948;2023-03-20T06:48:29;2.50;;;2.30;;
20379;SDS011;10349;48.666;8.948;2023-03-20T06:50:55;2.17;;;2.03;;
20379;SDS011;10349;48.666;8.948;2023-03-20T06:53:25;2.17;;;2.07;;
20379;SDS011;10349;48.666;8.948;2023-03-20T06:55:58;2.30;;;2.13;;
20379;SDS011;10349;48.666;8.948;2023-03-20T06:58:24;2.63;;;2.43;;
20379;SDS011;10349;48.666;8.948;2023-03-20T07:00:51;2.30;;;2.20;;
20379;SDS011;10349;48.666;8.948;2023-03-20T07:03:18;2.40;;;2.20;;
20379;SDS011;10349;48.666;8.948;2023-03-20T07:05:46;4.97;;;4.40;;
20379;SDS011;10349;48.666;8.948;2023-03-20T07:08:12;2.33;;;2.23;;
20379;SDS011;10349;48.666;8.948;2023-03-20T07:10:39;2.33;;;2.13;;
20379;SDS011;10349;48.666;8.948;2023-03-20T07:13:05;2.40;;;1.77;;
20379;SDS011;10349;48.666;8.948;2023-03-20T07:15:32;2.47;;;1.90;;
20379;SDS011;10349;48.666;8.948;2023-03-20T07:17:57;2.23;;;2.03;;
20379;SDS011;10349;48.666;8.948;2023-03-20T07:20:25;2.00;;;1.90;;
20379;SDS011;10349;48.666;8.948;2023-03-20T07:22:51;2.07;;;1.83;;
20379;SDS011;10349;48.666;8.948;2023-03-20T07:25:21;1.67;;;1.57;;
20379;SDS011;10349;48.666;8.948;2023-03-20T07:27:47;1.70;;;1.60;;
20379;SDS011;10349;48.666;8.948;2023-03-20T07:30:17;2.00;;;1.90;;
20379;SDS011;10349;48.666;8.948;2023-03-20T07:32:45;2.57;;;2.37;;
20379;SDS011;10349;48.666;8.948;2023-03-20T07:35:12;2.03;;;1.83;;
20379;SDS011;10349;48.666;8.948;2023-03-20T07:37:40;2.17;;;2.00;;
20379;SDS011;10349;48.666;8.948;2023-03-20T07:40:06;2.00;;;1.90;;
20379;SDS011;10349;48.666;8.948;2023-03-20T07:42:41;2.47;;;2.07;;
20379;SDS011;10349;48.666;8.948;2023-03-20T07:45:17;2.30;;;2.10;;
20379;SDS011;10349;48.666;8.948;2023-03-20T07:47:46;2.50;;;2.30;;
20379;SDS011;10349;48.666;8.948;2023-03-20T07:50:12;1.70;;;1.60;;
20379;SDS011;10349;48.666;8.948;2023-03-20T07:52:44;2.10;;;2.00;;
20379;SDS011;10349;48.666;8.948;2023-03-20T07:55:11;1.97;;;1.87;;
20379;SDS011;10349;48.666;8.948;2023-03-20T07:57:37;2.60;;;2.40;;
20379;SDS011;10349;48.666;8.948;2023-03-20T08:00:02;2.90;;;1.90;;
20379;SDS011;10349;48.666;8.948;2023-03-20T08:02:36;1.90;;;1.80;;
20379;SDS011;10349;48.666;8.948;2023-03-20T08:05:02;1.73;;;1.63;;
20379;SDS011;10349;48.666;8.948;2023-03-20T08:07:28;2.10;;;2.00;;
20379;SDS011;10349;48.666;8.948;2023-03-20T08:09:54;1.97;;;1.87;;
20379;SDS011;10349;48.666;8.948;2023-03-20T08:12:20;2.30;;;2.00;;
20379;SDS011;10349;48.666;8.948;2023-03-20T08:14:46;1.93;;;1.83;;
20379;SDS011;10349;48.666;8.948;2023-03-20T08:17:11;2.87;;;2.30;;
20379;SDS011;10349;48.666;8.948;2023-03-20T08:19:37;2.10;;;2.00;;
20379;SDS011;10349;48.666;8.948;2023-03-20T08:22:03;2.70;;;2.50;;
20379;SDS011;10349;48.666;8.948;2023-03-20T08:24:31;1.67;;;1.57;;
20379;SDS011;10349;48.666;8.948;2023-03-20T08:26:57;2.17;;;1.97;;
20379;SDS011;10349;48.666;8.948;2023-03-20T08:29:23;1.90;;;1.70;;
20379;SDS011;10349;48.666;8.948;2023-03-20T08:31:48;2.70;;;2.00;;
20379;SDS011;10349;48.666;8.948;2023-03-20T08:34:14;2.30;;;2.10;;
20379;SDS011;10349;48.666;8.948;2023-03-20T08:36:40;2.40;;;2.20;;
20379;SDS011;10349;48.666;8.948;2023-03-20T08:39:07;2.10;;;2.00;;
20379;SDS011;10349;48.666;8.948;2023-03-20T08:41:33;2.13;;;2.03;;
20379;SDS011;10349;48.666;8.948;2023-03-20T08:44:03;2.00;;;1.90;;
20379;SDS011;10349;48.666;8.948;2023-03-20T08:46:29;2.47;;;2.27;;
20379;SDS011;10349;48.666;8.948;2023-03-20T08:48:57;2.20;;;2.00;;
20379;SDS011;10349;48.666;8.948;2023-03-20T08:51:24;3.60;;;2.23;;
20379;SDS011;10349;48.666;8.948;2023-03-20T08:53:51;2.80;;;2.50;;
20379;SDS011;10349;48.666;8.948;2023-03-20T08:56:17;2.60;;;2.40;;
20379;SDS011;10349;48.666;8.948;2023-03-20T08:58:43;1.70;;;1.60;;
20379;SDS011;10349;48.666;8.948;2023-03-20T09:01:08;3.47;;;2.30;;
20379;SDS011;10349;48.666;8.948;2023-03-20T09:03:35;2.50;;;2.03;;
20379;SDS011;10349;48.666;8.948;2023-03-20T09:06:03;2.60;;;2.40;;
20379;SDS011;10349;48.666;8.948;2023-03-20T09:08:31;2.43;;;2.23;;
20379;SDS011;10349;48.666;8.948;2023-03-20T09:10:57;2.27;;;2.07;;
20379;SDS011;10349;48.666;8.948;2023-03-20T09:13:22;5.10;;;2.50;;
20379;SDS011;10349;48.666;8.948;2023-03-20T09:15:49;2.77;;;2.13;;
20379;SDS011;10349;48.666;8.948;2023-03-20T09:18:15;3.97;;;2.20;;
20379;SDS011;10349;48.666;8.948;2023-03-20T09:20:41;1.90;;;1.80;;
20379;SDS011;10349;48.666;8.948;2023-03-20T09:23:07;2.50;;;2.30;;
20379;SDS011;10349;48.666;8.948;2023-03-20T09:25:33;2.57;;;2.00;;
20379;SDS011;10349;48.666;8.948;2023-03-20T09:27:58;2.53;;;2.37;;
20379;SDS011;10349;48.666;8.948;2023-03-20T09:30:24;2.10;;;1.97;;
20379;SDS011;10349;48.666;8.948;2023-03-20T09:32:50;1.97;;;1.77;;
20379;SDS011;10349;48.666;8.948;2023-03-20T09:35:16;1.97;;;1.87;;
20379;SDS011;10349;48.666;8.948;2023-03-20T09:37:42;2.03;;;1.93;;
20379;SDS011;10349;48.666;8.948;2023-03-20T09:40:32;2.10;;;1.93;;
20379;SDS011;10349;48.666;8.948;2023-03-20T09:43:03;2.23;;;2.07;;
20379;SDS011;10349;48.666;8.948;2023-03-20T09:45:39;2.50;;;2.30;;
20379;SDS011;10349;48.666;8.948;2023-03-20T09:48:32;2.33;;;2.10;;
20379;SDS011;10349;48.666;8.948;2023-03-20T09:53:41;1.67;;;1.57;;
20379;SDS011;10349;48.666;8.948;2023-03-20T09:56:16;2.03;;;1.93;;
20379;SDS011;10349;48.666;8.948;2023-03-20T09:58:50;1.50;;;1.40;;
20379;SDS011;10349;48.666;8.948;2023-03-20T10:01:23;2.50;;;2.30;;
20379;SDS011;10349;48.666;8.948;2023-03-20T10:04:05;2.70;;;2.50;;
20379;SDS011;10349;48.666;8.948;2023-03-20T10:06:33;2.23;;;2.07;;
20379;SDS011;10349;48.666;8.948;2023-03-20T10:08:59;1.90;;;1.80;;
20379;SDS011;10349;48.666;8.948;2023-03-20T10:14:34;1.77;;;1.67;;
20379;SDS011;10349;48.666;8.948;2023-03-20T10:17:20;2.43;;;1.50;;
20379;SDS011;10349;48.666;8.948;2023-03-20T10:20:08;1.97;;;1.50;;
20379;SDS011;10349;48.666;8.948;2023-03-20T10:22:39;1.77;;;1.47;;
20379;SDS011;10349;48.666;8.948;2023-03-20T10:27:57;1.60;;;1.50;;
20379;SDS011;10349;48.666;8.948;2023-03-20T10:39:12;1.67;;;1.57;;
20379;SDS011;10349;48.666;8.948;2023-03-20T10:41:59;2.60;;;1.87;;
20379;SDS011;10349;48.666;8.948;2023-03-20T10:44:29;2.33;;;2.03;;
20379;SDS011;10349;48.666;8.948;2023-03-20T10:47:02;2.00;;;1.80;;
20379;SDS011;10349;48.666;8.948;2023-03-20T10:49:37;3.83;;;2.03;;
20379;SDS011;10349;48.666;8.948;2023-03-20T10:52:11;1.67;;;1.57;;
20379;SDS011;10349;48.666;8.948;2023-03-20T10:54:45;3.47;;;3.27;;
20379;SDS011;10349;48.666;8.948;2023-03-20T10:57:19;1.77;;;1.67;;
20379;SDS011;10349;48.666;8.948;2023-03-20T10:59:48;1.67;;;1.57;;
20379;SDS011;10349;48.666;8.948;2023-03-20T11:02:16;1.30;;;1.20;;
20379;SDS011;10349;48.666;8.948;2023-03-20T11:04:43;1.30;;;1.20;;
20379;SDS011;10349;48.666;8.948;2023-03-20T11:07:26;1.57;;;1.47;;
20379;SDS011;10349;48.666;8.948;2023-03-20T11:12:40;1.50;;;1.40;;
20379;SDS011;10349;48.666;8.948;2023-03-20T11:15:25;2.03;;;1.70;;
20379;SDS011;10349;48.666;8.948;2023-03-20T11:18:04;1.77;;;1.63;;
20379;SDS011;10349;48.666;8.948;2023-03-20T11:21:06;1.50;;;1.40;;
20379;SDS011;10349;48.666;8.948;2023-03-20T11:23:26;1.87;;;1.77;;
20379;SDS011;10349;48.666;8.948;2023-03-20T11:25:56;1.67;;;1.57;;
20379;SDS011;10349;48.666;8.948;2023-03-20T11:28:31;1.90;;;1.80;;
20379;SDS011;10349;48.666;8.948;2023-03-20T11:31:15;2.30;;;1.97;;
20379;SDS011;10349;48.666;8.948;2023-03-20T11:33:43;2.27;;;2.07;;
20379;SDS011;10349;48.666;8.948;2023-03-20T11:36:30;1.87;;;1.77;;
20379;SDS011;10349;48.666;8.948;2023-03-20T11:41:34;2.00;;;1.90;;
20379;SDS011;10349;48.666;8.948;2023-03-20T11:44:24;2.20;;;2.00;;
20379;SDS011;10349;48.666;8.948;2023-03-20T11:49:31;1.60;;;1.40;;
20379;SDS011;10349;48.666;8.948;2023-03-20T11:51:59;2.03;;;1.60;;
20379;SDS011;10349;48.666;8.948;2023-03-20T11:54:36;1.30;;;1.20;;
20379;SDS011;10349;48.666;8.948;2023-03-20T11:57:12;1.40;;;1.20;;
20379;SDS011;10349;48.666;8.948;2023-03-20T11:59:53;1.90;;;1.67;;
20379;SDS011;10349;48.666;8.948;2023-03-20T12:02:20;1.63;;;1.53;;
20379;SDS011;10349;48.666;8.948;2023-03-20T12:04:48;1.90;;;1.60;;
20379;SDS011;10349;48.666;8.948;2023-03-20T12:07:28;1.80;;;1.37;;
20379;SDS011;10349;48.666;8.948;2023-03-20T12:09:58;1.70;;;1.50;;
20379;SDS011;10349;48.666;8.948;2023-03-20T12:15:21;1.87;;;1.20;;
20379;SDS011;10349;48.666;8.948;2023-03-20T12:18:12;1.27;;;1.17;;
20379;SDS011;10349;48.666;8.948;2023-03-20T12:21:03;1.57;;;1.13;;
20379;SDS011;10349;48.666;8.948;2023-03-20T12:26:10;1.33;;;1.23;;
20379;SDS011;10349;48.666;8.948;2023-03-20T12:28:49;1.60;;;1.20;;
20379;SDS011;10349;48.666;8.948;2023-03-20T12:35:30;1.30;;;1.00;;
20379;SDS011;10349;48.666;8.948;2023-03-20T12:37:39;2.10;;;1.30;;
20379;SDS011;10349;48.666;8.948;2023-03-20T12:40:10;1.47;;;1.00;;
20379;SDS011;10349;48.666;8.948;2023-03-20T12:45:37;1.13;;;1.00;;
20379;SDS011;10349;48.666;8.948;2023-03-20T12:48:39;1.70;;;1.17;;
20379;SDS011;10349;48.666;8.948;2023-03-20T12:51:04;1.53;;;1.40;;
20379;SDS011;10349;48.666;8.948;2023-03-20T12:53:35;1.53;;;1.20;;
20379;SDS011;10349;48.666;8.948;2023-03-20T13:01:44;2.40;;;1.20;;
20379;SDS011;10349;48.666;8.948;2023-03-20T13:06:53;1.90;;;1.43;;
20379;SDS011;10349;48.666;8.948;2023-03-20T13:09:36;1.50;;;1.40;;
20379;SDS011;10349;48.666;8.948;2023-03-20T13:15:29;1.63;;;1.50;;
20379;SDS011;10349;48.666;8.948;2023-03-20T13:18:11;1.50;;;1.40;;
20379;SDS011;10349;48.666;8.948;2023-03-20T13:21:09;1.67;;;1.57;;
20379;SDS011;10349;48.666;8.948;2023-03-20T13:23:43;1.80;;;1.70;;
20379;SDS011;10349;48.666;8.948;2023-03-20T13:26:58;1.70;;;1.60;;
20379;SDS011;10349;48.666;8.948;2023-03-20T13:32:29;1.53;;;1.43;;
20379;SDS011;10349;48.666;8.948;2023-03-20T13:37:55;1.97;;;1.80;;
20379;SDS011;10349;48.666;8.948;2023-03-20T13:40:25;4.70;;;1.10;;
20379;SDS011;10349;48.666;8.948;2023-03-20T13:45:48;1.40;;;1.20;;
20379;SDS011;10349;48.666;8.948;2023-03-20T13:48:31;1.30;;;1.20;;
20379;SDS011;10349;48.666;8.948;2023-03-20T14:02:30;2.13;;;1.20;;
20379;SDS011;10349;48.666;8.948;2023-03-20T14:05:17;1.70;;;1.60;;
20379;SDS011;10349;48.666;8.948;2023-03-20T14:07:47;1.37;;;1.27;;
20379;SDS011;10349;48.666;8.948;2023-03-20T14:12:58;1.77;;;1.17;;
20379;SDS011;10349;48.666;8.948;2023-03-20T14:15:26;1.80;;;1.70;;
20379;SDS011;10349;48.666;8.948;2023-03-20T14:17:55;2.63;;;1.50;;
20379;SDS011;10349;48.666;8.948;2023-03-20T14:22:58;2.70;;;1.30;;
20379;SDS011;10349;48.666;8.948;2023-03-20T14:25:33;1.17;;;1.07;;
20379;SDS011;10349;48.666;8.948;2023-03-20T14:30:40;1.67;;;1.33;;
20379;SDS011;10349;48.666;8.948;2023-03-20T14:46:47;1.20;;;1.10;;
20379;SDS011;10349;48.666;8.948;2023-03-20T14:49:35;1.53;;;1.00;;
20379;SDS011;10349;48.666;8.948;2023-03-20T14:52:21;4.20;;;1.20;;
20379;SDS011;10349;48.666;8.948;2023-03-20T14:55:14;1.13;;;1.00;;
20379;SDS011;10349;48.666;8.948;2023-03-20T14:58:01;1.60;;;1.20;;
20379;SDS011;10349;48.666;8.948;2023-03-20T15:00:47;1.70;;;1.60;;
20379;SDS011;10349;48.666;8.948;2023-03-20T15:03:14;1.53;;;1.40;;
20379;SDS011;10349;48.666;8.948;2023-03-20T15:05:41;1.90;;;1.63;;
20379;SDS011;10349;48.666;8.948;2023-03-20T15:10:35;1.57;;;1.47;;
20379;SDS011;10349;48.666;8.948;2023-03-20T15:13:09;1.50;;;1.40;;
20379;SDS011;10349;48.666;8.948;2023-03-20T15:15:37;1.50;;;1.40;;
20379;SDS011;10349;48.666;8.948;2023-03-20T15:18:15;1.93;;;1.60;;
20379;SDS011;10349;48.666;8.948;2023-03-20T15:20:43;2.63;;;1.50;;
20379;SDS011;10349;48.666;8.948;2023-03-20T15:23:09;3.00;;;1.97;;
20379;SDS011;10349;48.666;8.948;2023-03-20T15:28:06;1.70;;;1.60;;
20379;SDS011;10349;48.666;8.948;2023-03-20T15:30:35;6.60;;;2.40;;
20379;SDS011;10349;48.666;8.948;2023-03-20T15:33:02;1.77;;;1.67;;
20379;SDS011;10349;48.666;8.948;2023-03-20T15:35:28;1.83;;;1.63;;
20379;SDS011;10349;48.666;8.948;2023-03-20T15:37:55;2.17;;;2.07;;
20379;SDS011;10349;48.666;8.948;2023-03-20T15:40:29;1.63;;;1.47;;
20379;SDS011;10349;48.666;8.948;2023-03-20T15:42:56;2.37;;;2.13;;
20379;SDS011;10349;48.666;8.948;2023-03-20T15:45:25;1.83;;;1.63;;
20379;SDS011;10349;48.666;8.948;2023-03-20T15:48:05;1.73;;;1.63;;
20379;SDS011;10349;48.666;8.948;2023-03-20T15:50:33;3.30;;;1.60;;
20379;SDS011;10349;48.666;8.948;2023-03-20T15:53:03;1.50;;;1.40;;
20379;SDS011;10349;48.666;8.948;2023-03-20T15:55:30;2.00;;;1.20;;
20379;SDS011;10349;48.666;8.948;2023-03-20T15:57:56;1.50;;;1.40;;
20379;SDS011;10349;48.666;8.948;2023-03-20T16:00:29;1.67;;;1.20;;
20379;SDS011;10349;48.666;8.948;2023-03-20T16:03:00;1.70;;;1.50;;
20379;SDS011;10349;48.666;8.948;2023-03-20T16:05:29;1.40;;;1.30;;
20379;SDS011;10349;48.666;8.948;2023-03-20T16:07:55;3.73;;;1.47;;
20379;SDS011;10349;48.666;8.948;2023-03-20T16:10:31;1.60;;;1.50;;
20379;SDS011;10349;48.666;8.948;2023-03-20T16:13:02;2.03;;;1.40;;
20379;SDS011;10349;48.666;8.948;2023-03-20T16:15:30;2.83;;;1.93;;
20379;SDS011;10349;48.666;8.948;2023-03-20T16:17:58;1.47;;;1.37;;
20379;SDS011;10349;48.666;8.948;2023-03-20T16:20:27;1.93;;;1.80;;
20379;SDS011;10349;48.666;8.948;2023-03-20T16:22:59;1.30;;;1.20;;
20379;SDS011;10349;48.666;8.948;2023-03-20T16:25:28;1.37;;;1.27;;
20379;SDS011;10349;48.666;8.948;2023-03-20T16:27:54;5.73;;;2.17;;
20379;SDS011;10349;48.666;8.948;2023-03-20T16:30:24;2.33;;;1.57;;
20379;SDS011;10349;48.666;8.948;2023-03-20T16:32:58;1.70;;;1.60;;
20379;SDS011;10349;48.666;8.948;2023-03-20T16:35:47;2.30;;;2.10;;
20379;SDS011;10349;48.666;8.948;2023-03-20T16:38:23;2.00;;;1.80;;
20379;SDS011;10349;48.666;8.948;2023-03-20T16:40:55;1.80;;;1.70;;
20379;SDS011;10349;48.666;8.948;2023-03-20T16:43:37;1.53;;;1.33;;
20379;SDS011;10349;48.666;8.948;2023-03-20T16:46:04;1.80;;;1.70;;
20379;SDS011;10349;48.666;8.948;2023-03-20T16:48:31;1.77;;;1.67;;
20379;SDS011;10349;48.666;8.948;2023-03-20T16:51:01;1.80;;;1.70;;
20379;SDS011;10349;48.666;8.948;2023-03-20T16:53:47;1.73;;;1.47;;
20379;SDS011;10349;48.666;8.948;2023-03-20T16:56:23;1.50;;;1.40;;
20379;SDS011;10349;48.666;8.948;2023-03-20T16:58:53;1.87;;;1.73;;
20379;SDS011;10349;48.666;8.948;2023-03-20T17:01:21;1.80;;;1.70;;
20379;SDS011;10349;48.666;8.948;2023-03-20T17:03:53;3.03;;;2.73;;
20379;SDS011;10349;48.666;8.948;2023-03-20T17:06:37;3.10;;;2.90;;
20379;SDS011;10349;48.666;8.948;2023-03-20T17:09:13;3.07;;;2.77;;
20379;SDS011;10349;48.666;8.948;2023-03-20T17:11:49;2.37;;;2.17;;
20379;SDS011;10349;48.666;8.948;2023-03-20T17:14:21;2.00;;;1.90;;
20379;SDS011;10349;48.666;8.948;2023-03-20T17:16:47;2.40;;;2.27;;
20379;SDS011;10349;48.666;8.948;2023-03-20T17:19:16;2.53;;;2.33;;
20379;SDS011;10349;48.666;8.948;2023-03-20T17:21:43;2.70;;;2.00;;
20379;SDS011;10349;48.666;8.948;2023-03-20T17:24:10;3.10;;;1.87;;
20379;SDS011;10349;48.666;8.948;2023-03-20T17:26:37;4.07;;;2.33;;
20379;SDS011;10349;48.666;8.948;2023-03-20T17:29:05;2.07;;;1.97;;
20379;SDS011;10349;48.666;8.948;2023-03-20T17:31:31;5.13;;;1.97;;
20379;SDS011;10349;48.666;8.948;2023-03-20T17:33:56;2.07;;;1.90;;
20379;SDS011;10349;48.666;8.948;2023-03-20T17:36:23;1.97;;;1.70;;